sensor_id;sensor_type;location;lat;lon;timestamp;temperature;humidity
39079;DHT22;24829;49.208;12.080;2023-06-04T00:00:29;15.00;71.00
39079;DHT22;24829;49.208;12.080;2023-06-04T00:02:54;14.90;71.20
39079;DHT22;24829;49.208;12.080;2023-06-04T00:05:20;14.90;71.20
39079;DHT22;24829;49.208;12.080;2023-06-04T00:07:47;14.80;71.50
39079;DHT22;24829;49.208;12.080;2023-06-04T00:10:13;14.80;71.60
39079;DHT22;24829;49.208;12.080;2023-06-04T00:12:38;14.70;71.80
39079;DHT22;24829;49.208;12.080;2023-06-04T00:15:04;14.70;71.70
39079;DHT22;24829;49.208;12.080;2023-06-04T00:17:30;14.70;72.40
39079;DHT22;24829;49.208;12.080;2023-06-04T00:19:56;14.60;72.00
39079;DHT22;24829;49.208;12.080;2023-06-04T00:22:21;14.60;72.10
39079;DHT22;24829;49.208;12.080;2023-06-04T00:24:47;14.60;71.60
39079;DHT22;24829;49.208;12.080;2023-06-04T00:27:12;14.60;71.90
39079;DHT22;24829;49.208;12.080;2023-06-04T00:29:38;14.50;72.00
39079;DHT22;24829;49.208;12.080;2023-06-04T00:32:04;14.50;72.20
39079;DHT22;24829;49.208;12.080;2023-06-04T00:34:29;14.40;72.50
39079;DHT22;24829;49.208;12.080;2023-06-04T00:36:55;14.40;72.60
39079;DHT22;24829;49.208;12.080;2023-06-04T00:39:21;14.30;73.10
39079;DHT22;24829;49.208;12.080;2023-06-04T00:41:46;14.30;73.30
39079;DHT22;24829;49.208;12.080;2023-06-04T00:44:12;14.30;73.20
39079;DHT22;24829;49.208;12.080;2023-06-04T00:46:37;14.20;73.50
39079;DHT22;24829;49.208;12.080;2023-06-04T00:49:04;14.10;73.80
39079;DHT22;24829;49.208;12.080;2023-06-04T00:51:31;14.10;73.90
39079;DHT22;24829;49.208;12.080;2023-06-04T00:53:58;14.10;74.00
39079;DHT22;24829;49.208;12.080;2023-06-04T00:56:24;14.20;73.90
39079;DHT22;24829;49.208;12.080;2023-06-04T00:58:49;14.10;74.10
39079;DHT22;24829;49.208;12.080;2023-06-04T01:01:21;14.10;74.10
39079;DHT22;24829;49.208;12.080;2023-06-04T01:03:51;14.00;74.10
39079;DHT22;24829;49.208;12.080;2023-06-04T01:08:49;14.00;74.00
39079;DHT22;24829;49.208;12.080;2023-06-04T01:11:15;14.00;74.20
39079;DHT22;24829;49.208;12.080;2023-06-04T01:13:41;14.00;74.30
39079;DHT22;24829;49.208;12.080;2023-06-04T01:16:06;14.00;74.50
39079;DHT22;24829;49.208;12.080;2023-06-04T01:18:36;13.90;74.70
39079;DHT22;24829;49.208;12.080;2023-06-04T01:21:08;13.90;74.70
39079;DHT22;24829;49.208;12.080;2023-06-04T01:23:47;13.90;75.00
39079;DHT22;24829;49.208;12.080;2023-06-04T01:26:15;13.90;75.20
39079;DHT22;24829;49.208;12.080;2023-06-04T01:28:42;13.80;75.70
39079;DHT22;24829;49.208;12.080;2023-06-04T01:31:08;13.70;76.20
39079;DHT22;24829;49.208;12.080;2023-06-04T01:33:34;13.60;76.50
39079;DHT22;24829;49.208;12.080;2023-06-04T01:36:00;13.60;76.80
39079;DHT22;24829;49.208;12.080;2023-06-04T01:38:26;13.50;77.10
39079;DHT22;24829;49.208;12.080;2023-06-04T01:40:52;13.50;77.20
39079;DHT22;24829;49.208;12.080;2023-06-04T01:43:21;13.60;77.40
39079;DHT22;24829;49.208;12.080;2023-06-04T01:45:47;13.60;77.10
39079;DHT22;24829;49.208;12.080;2023-06-04T01:48:13;13.60;77.30
39079;DHT22;24829;49.208;12.080;2023-06-04T01:50:39;13.50;77.40
39079;DHT22;24829;49.208;12.080;2023-06-04T01:53:05;13.40;77.90
39079;DHT22;24829;49.208;12.080;2023-06-04T01:55:31;13.30;78.20
39079;DHT22;24829;49.208;12.080;2023-06-04T01:57:59;13.20;78.50
39079;DHT22;24829;49.208;12.080;2023-06-04T02:00:24;13.30;78.60
39079;DHT22;24829;49.208;12.080;2023-06-04T02:02:50;13.20;78.40
39079;DHT22;24829;49.208;12.080;2023-06-04T02:05:17;13.20;78.40
39079;DHT22;24829;49.208;12.080;2023-06-04T02:07:43;13.10;78.10
39079;DHT22;24829;49.208;12.080;2023-06-04T02:10:11;13.00;78.20
39079;DHT22;24829;49.208;12.080;2023-06-04T02:12:52;13.00;78.30
39079;DHT22;24829;49.208;12.080;2023-06-04T02:15:18;12.90;78.50
39079;DHT22;24829;49.208;12.080;2023-06-04T02:17:44;12.80;78.60
39079;DHT22;24829;49.208;12.080;2023-06-04T02:20:11;12.80;79.10
39079;DHT22;24829;49.208;12.080;2023-06-04T02:22:36;12.80;79.50
39079;DHT22;24829;49.208;12.080;2023-06-04T02:25:02;12.70;79.70
39079;DHT22;24829;49.208;12.080;2023-06-04T02:27:28;12.70;80.30
39079;DHT22;24829;49.208;12.080;2023-06-04T02:29:53;12.70;81.00
39079;DHT22;24829;49.208;12.080;2023-06-04T02:32:19;12.70;80.50
39079;DHT22;24829;49.208;12.080;2023-06-04T02:34:45;12.80;81.30
39079;DHT22;24829;49.208;12.080;2023-06-04T02:37:10;12.70;81.80
39079;DHT22;24829;49.208;12.080;2023-06-04T02:39:36;12.70;81.40
39079;DHT22;24829;49.208;12.080;2023-06-04T02:42:01;12.70;81.60
39079;DHT22;24829;49.208;12.080;2023-06-04T02:44:27;12.70;81.60
39079;DHT22;24829;49.208;12.080;2023-06-04T02:46:55;12.80;81.60
39079;DHT22;24829;49.208;12.080;2023-06-04T02:49:20;12.70;81.60
39079;DHT22;24829;49.208;12.080;2023-06-04T02:51:47;12.70;81.50
39079;DHT22;24829;49.208;12.080;2023-06-04T02:54:12;12.70;81.80
39079;DHT22;24829;49.208;12.080;2023-06-04T02:56:38;12.70;81.80
39079;DHT22;24829;49.208;12.080;2023-06-04T02:59:04;12.60;82.30
39079;DHT22;24829;49.208;12.080;2023-06-04T03:01:30;12.40;82.90
39079;DHT22;24829;49.208;12.080;2023-06-04T03:03:56;12.30;83.90
39079;DHT22;24829;49.208;12.080;2023-06-04T03:06:26;12.20;85.20
39079;DHT22;24829;49.208;12.080;2023-06-04T03:08:52;12.10;85.00
39079;DHT22;24829;49.208;12.080;2023-06-04T03:11:18;12.00;85.00
39079;DHT22;24829;49.208;12.080;2023-06-04T03:13:48;12.00;84.90
39079;DHT22;24829;49.208;12.080;2023-06-04T03:16:14;12.10;84.60
39079;DHT22;24829;49.208;12.080;2023-06-04T03:18:40;12.20;84.00
39079;DHT22;24829;49.208;12.080;2023-06-04T03:21:06;12.20;83.70
39079;DHT22;24829;49.208;12.080;2023-06-04T03:23:33;12.30;83.70
39079;DHT22;24829;49.208;12.080;2023-06-04T03:26:02;12.30;83.50
39079;DHT22;24829;49.208;12.080;2023-06-04T03:28:28;12.30;83.60
39079;DHT22;24829;49.208;12.080;2023-06-04T03:30:53;12.30;83.80
39079;DHT22;24829;49.208;12.080;2023-06-04T03:33:19;12.20;84.00
39079;DHT22;24829;49.208;12.080;2023-06-04T03:35:45;12.10;84.50
39079;DHT22;24829;49.208;12.080;2023-06-04T03:38:11;12.00;85.00
39079;DHT22;24829;49.208;12.080;2023-06-04T03:40:36;12.00;85.50
39079;DHT22;24829;49.208;12.080;2023-06-04T03:43:02;12.00;85.60
39079;DHT22;24829;49.208;12.080;2023-06-04T03:45:30;12.10;85.20
39079;DHT22;24829;49.208;12.080;2023-06-04T03:47:55;12.20;84.90
39079;DHT22;24829;49.208;12.080;2023-06-04T03:50:21;12.20;84.60
39079;DHT22;24829;49.208;12.080;2023-06-04T03:52:48;12.10;84.40
39079;DHT22;24829;49.208;12.080;2023-06-04T03:55:13;12.00;84.60
39079;DHT22;24829;49.208;12.080;2023-06-04T03:57:39;12.00;85.30
39079;DHT22;24829;49.208;12.080;2023-06-04T04:00:09;12.00;85.70
39079;DHT22;24829;49.208;12.080;2023-06-04T04:02:41;12.00;86.50
39079;DHT22;24829;49.208;12.080;2023-06-04T04:05:07;12.10;86.70
39079;DHT22;24829;49.208;12.080;2023-06-04T04:07:32;12.30;86.50
39079;DHT22;24829;49.208;12.080;2023-06-04T04:09:58;12.90;84.20
39079;DHT22;24829;49.208;12.080;2023-06-04T04:12:23;13.40;82.70
39079;DHT22;24829;49.208;12.080;2023-06-04T04:14:49;14.00;81.10
39079;DHT22;24829;49.208;12.080;2023-06-04T04:17:14;14.40;79.70
39079;DHT22;24829;49.208;12.080;2023-06-04T04:19:40;14.90;78.50
39079;DHT22;24829;49.208;12.080;2023-06-04T04:22:06;15.30;77.40
39079;DHT22;24829;49.208;12.080;2023-06-04T04:24:34;15.50;76.30
39079;DHT22;24829;49.208;12.080;2023-06-04T04:27:01;15.90;75.60
39079;DHT22;24829;49.208;12.080;2023-06-04T04:29:29;16.20;74.60
39079;DHT22;24829;49.208;12.080;2023-06-04T04:31:58;16.50;73.70
39079;DHT22;24829;49.208;12.080;2023-06-04T04:34:36;16.80;73.00
39079;DHT22;24829;49.208;12.080;2023-06-04T04:37:03;17.10;72.00
39079;DHT22;24829;49.208;12.080;2023-06-04T04:39:28;17.20;71.60
39079;DHT22;24829;49.208;12.080;2023-06-04T04:41:55;17.50;71.10
39079;DHT22;24829;49.208;12.080;2023-06-04T04:44:20;17.70;69.90
39079;DHT22;24829;49.208;12.080;2023-06-04T04:46:48;17.90;69.60
39079;DHT22;24829;49.208;12.080;2023-06-04T04:49:13;18.00;69.50
39079;DHT22;24829;49.208;12.080;2023-06-04T04:51:39;18.20;68.80
39079;DHT22;24829;49.208;12.080;2023-06-04T04:54:05;18.20;68.70
39079;DHT22;24829;49.208;12.080;2023-06-04T04:56:34;18.20;68.20
39079;DHT22;24829;49.208;12.080;2023-06-04T04:59:02;18.30;68.20
39079;DHT22;24829;49.208;12.080;2023-06-04T05:01:27;18.20;68.40
39079;DHT22;24829;49.208;12.080;2023-06-04T05:03:53;18.40;68.30
39079;DHT22;24829;49.208;12.080;2023-06-04T05:06:19;18.50;68.00
39079;DHT22;24829;49.208;12.080;2023-06-04T05:08:45;18.50;67.90
39079;DHT22;24829;49.208;12.080;2023-06-04T05:11:10;18.50;67.70
39079;DHT22;24829;49.208;12.080;2023-06-04T05:13:36;18.50;68.00
39079;DHT22;24829;49.208;12.080;2023-06-04T05:16:02;18.70;67.70
39079;DHT22;24829;49.208;12.080;2023-06-04T05:18:37;18.90;67.40
39079;DHT22;24829;49.208;12.080;2023-06-04T05:21:07;19.00;67.50
39079;DHT22;24829;49.208;12.080;2023-06-04T05:23:33;19.30;66.90
39079;DHT22;24829;49.208;12.080;2023-06-04T05:26:03;19.40;66.60
39079;DHT22;24829;49.208;12.080;2023-06-04T05:28:28;19.50;66.80
39079;DHT22;24829;49.208;12.080;2023-06-04T05:30:54;19.70;66.00
39079;DHT22;24829;49.208;12.080;2023-06-04T05:33:25;19.90;65.70
39079;DHT22;24829;49.208;12.080;2023-06-04T05:35:51;20.00;65.70
39079;DHT22;24829;49.208;12.080;2023-06-04T05:38:20;20.10;65.40
39079;DHT22;24829;49.208;12.080;2023-06-04T05:40:46;20.20;65.30
39079;DHT22;24829;49.208;12.080;2023-06-04T05:43:12;20.40;64.80
39079;DHT22;24829;49.208;12.080;2023-06-04T05:45:37;20.60;64.30
39079;DHT22;24829;49.208;12.080;2023-06-04T05:48:06;20.50;64.40
39079;DHT22;24829;49.208;12.080;2023-06-04T05:50:32;20.50;64.40
39079;DHT22;24829;49.208;12.080;2023-06-04T05:52:57;20.70;64.00
39079;DHT22;24829;49.208;12.080;2023-06-04T05:55:23;20.70;63.90
39079;DHT22;24829;49.208;12.080;2023-06-04T05:57:49;20.60;63.80
39079;DHT22;24829;49.208;12.080;2023-06-04T06:00:17;20.60;63.90
39079;DHT22;24829;49.208;12.080;2023-06-04T06:02:43;20.70;63.60
39079;DHT22;24829;49.208;12.080;2023-06-04T06:05:09;20.90;63.20
39079;DHT22;24829;49.208;12.080;2023-06-04T06:07:34;21.00;63.40
39079;DHT22;24829;49.208;12.080;2023-06-04T06:10:00;21.20;62.90
39079;DHT22;24829;49.208;12.080;2023-06-04T06:12:26;21.20;63.10
39079;DHT22;24829;49.208;12.080;2023-06-04T06:14:51;21.30;63.30
39079;DHT22;24829;49.208;12.080;2023-06-04T06:17:17;21.30;62.30
39079;DHT22;24829;49.208;12.080;2023-06-04T06:19:43;21.20;62.80
39079;DHT22;24829;49.208;12.080;2023-06-04T06:22:08;21.10;63.10
39079;DHT22;24829;49.208;12.080;2023-06-04T06:24:34;20.90;63.20
39079;DHT22;24829;49.208;12.080;2023-06-04T06:26:59;20.80;63.80
39079;DHT22;24829;49.208;12.080;2023-06-04T06:29:25;20.90;63.70
39079;DHT22;24829;49.208;12.080;2023-06-04T06:31:51;21.10;64.20
39079;DHT22;24829;49.208;12.080;2023-06-04T06:34:16;21.20;63.60
39079;DHT22;24829;49.208;12.080;2023-06-04T06:36:42;21.30;63.20
39079;DHT22;24829;49.208;12.080;2023-06-04T06:39:08;21.40;63.40
39079;DHT22;24829;49.208;12.080;2023-06-04T06:41:34;21.50;63.10
39079;DHT22;24829;49.208;12.080;2023-06-04T06:44:00;21.50;63.20
39079;DHT22;24829;49.208;12.080;2023-06-04T06:46:25;21.50;63.00
39079;DHT22;24829;49.208;12.080;2023-06-04T06:48:51;21.50;63.50
39079;DHT22;24829;49.208;12.080;2023-06-04T06:51:16;21.70;62.50
39079;DHT22;24829;49.208;12.080;2023-06-04T06:53:43;21.70;62.60
39079;DHT22;24829;49.208;12.080;2023-06-04T06:56:08;21.80;63.10
39079;DHT22;24829;49.208;12.080;2023-06-04T06:58:34;21.80;62.90
39079;DHT22;24829;49.208;12.080;2023-06-04T07:01:00;21.80;62.80
39079;DHT22;24829;49.208;12.080;2023-06-04T07:03:26;21.70;62.80
39079;DHT22;24829;49.208;12.080;2023-06-04T07:05:51;21.60;63.20
39079;DHT22;24829;49.208;12.080;2023-06-04T07:08:17;21.40;63.00
39079;DHT22;24829;49.208;12.080;2023-06-04T07:10:43;21.50;64.10
39079;DHT22;24829;49.208;12.080;2023-06-04T07:13:08;21.60;63.50
39079;DHT22;24829;49.208;12.080;2023-06-04T07:15:34;21.90;63.20
39079;DHT22;24829;49.208;12.080;2023-06-04T07:18:00;22.00;63.30
39079;DHT22;24829;49.208;12.080;2023-06-04T07:20:25;22.20;62.70
39079;DHT22;24829;49.208;12.080;2023-06-04T07:22:51;22.20;62.80
39079;DHT22;24829;49.208;12.080;2023-06-04T07:25:16;22.40;63.10
39079;DHT22;24829;49.208;12.080;2023-06-04T07:27:42;22.50;62.70
39079;DHT22;24829;49.208;12.080;2023-06-04T07:30:09;22.60;62.40
39079;DHT22;24829;49.208;12.080;2023-06-04T07:32:34;22.70;62.50
39079;DHT22;24829;49.208;12.080;2023-06-04T07:35:02;22.70;62.40
39079;DHT22;24829;49.208;12.080;2023-06-04T07:37:28;22.90;62.80
39079;DHT22;24829;49.208;12.080;2023-06-04T07:39:53;23.00;61.60
39079;DHT22;24829;49.208;12.080;2023-06-04T07:42:19;23.30;61.70
39079;DHT22;24829;49.208;12.080;2023-06-04T07:44:44;23.40;60.90
39079;DHT22;24829;49.208;12.080;2023-06-04T07:47:10;23.40;60.70
39079;DHT22;24829;49.208;12.080;2023-06-04T07:49:35;23.50;60.60
39079;DHT22;24829;49.208;12.080;2023-06-04T07:52:01;23.40;60.70
39079;DHT22;24829;49.208;12.080;2023-06-04T07:54:26;23.50;60.90
39079;DHT22;24829;49.208;12.080;2023-06-04T07:56:52;23.50;60.30
39079;DHT22;24829;49.208;12.080;2023-06-04T07:59:24;23.50;60.10
39079;DHT22;24829;49.208;12.080;2023-06-04T08:01:50;23.50;60.60
39079;DHT22;24829;49.208;12.080;2023-06-04T08:04:17;23.50;59.10
39079;DHT22;24829;49.208;12.080;2023-06-04T08:06:43;23.20;60.00
39079;DHT22;24829;49.208;12.080;2023-06-04T08:09:10;23.20;60.00
39079;DHT22;24829;49.208;12.080;2023-06-04T08:11:40;23.40;61.20
39079;DHT22;24829;49.208;12.080;2023-06-04T08:14:06;23.50;60.00
39079;DHT22;24829;49.208;12.080;2023-06-04T08:16:32;23.70;60.20
39079;DHT22;24829;49.208;12.080;2023-06-04T08:18:57;23.80;59.30
39079;DHT22;24829;49.208;12.080;2023-06-04T08:21:26;23.90;58.50
39079;DHT22;24829;49.208;12.080;2023-06-04T08:23:53;23.70;56.90
39079;DHT22;24829;49.208;12.080;2023-06-04T08:26:19;23.60;58.50
39079;DHT22;24829;49.208;12.080;2023-06-04T08:28:47;23.80;58.40
39079;DHT22;24829;49.208;12.080;2023-06-04T08:31:14;23.80;57.00
39079;DHT22;24829;49.208;12.080;2023-06-04T08:33:40;23.70;57.40
39079;DHT22;24829;49.208;12.080;2023-06-04T08:36:06;23.50;58.40
39079;DHT22;24829;49.208;12.080;2023-06-04T08:38:32;23.60;57.80
39079;DHT22;24829;49.208;12.080;2023-06-04T08:43:42;24.10;58.10
39079;DHT22;24829;49.208;12.080;2023-06-04T08:46:09;24.20;58.40
39079;DHT22;24829;49.208;12.080;2023-06-04T08:48:35;24.10;57.20
39079;DHT22;24829;49.208;12.080;2023-06-04T08:51:05;24.20;57.10
39079;DHT22;24829;49.208;12.080;2023-06-04T08:53:33;24.00;57.30
39079;DHT22;24829;49.208;12.080;2023-06-04T08:55:59;24.20;57.30
39079;DHT22;24829;49.208;12.080;2023-06-04T08:58:25;24.30;56.70
39079;DHT22;24829;49.208;12.080;2023-06-04T09:00:51;24.30;57.60
39079;DHT22;24829;49.208;12.080;2023-06-04T09:03:17;24.60;57.20
39079;DHT22;24829;49.208;12.080;2023-06-04T09:05:47;24.90;55.80
39079;DHT22;24829;49.208;12.080;2023-06-04T09:08:16;25.40;55.60
39079;DHT22;24829;49.208;12.080;2023-06-04T09:10:44;25.30;55.10
39079;DHT22;24829;49.208;12.080;2023-06-04T09:13:11;25.20;55.50
39079;DHT22;24829;49.208;12.080;2023-06-04T09:15:38;25.20;55.30
39079;DHT22;24829;49.208;12.080;2023-06-04T09:18:04;25.20;54.50
39079;DHT22;24829;49.208;12.080;2023-06-04T09:20:29;25.30;54.50
39079;DHT22;24829;49.208;12.080;2023-06-04T09:22:55;25.00;55.00
39079;DHT22;24829;49.208;12.080;2023-06-04T09:25:25;24.70;54.50
39079;DHT22;24829;49.208;12.080;2023-06-04T09:27:52;24.70;55.30
39079;DHT22;24829;49.208;12.080;2023-06-04T09:30:18;24.60;54.10
39079;DHT22;24829;49.208;12.080;2023-06-04T09:32:44;24.60;54.70
39079;DHT22;24829;49.208;12.080;2023-06-04T09:35:13;24.60;55.10
39079;DHT22;24829;49.208;12.080;2023-06-04T09:37:50;24.70;54.80
39079;DHT22;24829;49.208;12.080;2023-06-04T09:40:16;24.80;54.80
39079;DHT22;24829;49.208;12.080;2023-06-04T09:42:46;24.90;54.60
39079;DHT22;24829;49.208;12.080;2023-06-04T09:45:25;25.00;53.90
39079;DHT22;24829;49.208;12.080;2023-06-04T09:47:51;25.20;54.10
39079;DHT22;24829;49.208;12.080;2023-06-04T09:50:25;25.50;53.60
39079;DHT22;24829;49.208;12.080;2023-06-04T09:52:51;25.50;53.90
39079;DHT22;24829;49.208;12.080;2023-06-04T09:55:18;25.20;53.70
39079;DHT22;24829;49.208;12.080;2023-06-04T09:57:50;25.30;53.60
39079;DHT22;24829;49.208;12.080;2023-06-04T10:00:21;25.40;53.40
39079;DHT22;24829;49.208;12.080;2023-06-04T10:02:47;25.50;52.80
39079;DHT22;24829;49.208;12.080;2023-06-04T10:05:14;25.60;52.50
39079;DHT22;24829;49.208;12.080;2023-06-04T10:07:44;25.70;52.80
39079;DHT22;24829;49.208;12.080;2023-06-04T10:10:30;25.50;52.90
39079;DHT22;24829;49.208;12.080;2023-06-04T10:13:08;25.20;53.30
39079;DHT22;24829;49.208;12.080;2023-06-04T10:15:36;25.10;53.30
39079;DHT22;24829;49.208;12.080;2023-06-04T10:18:02;25.10;53.90
39079;DHT22;24829;49.208;12.080;2023-06-04T10:20:29;25.20;53.10
39079;DHT22;24829;49.208;12.080;2023-06-04T10:22:55;25.30;52.50
39079;DHT22;24829;49.208;12.080;2023-06-04T10:25:21;25.40;52.50
39079;DHT22;24829;49.208;12.080;2023-06-04T10:27:46;25.50;52.60
39079;DHT22;24829;49.208;12.080;2023-06-04T10:30:12;25.40;52.80
39079;DHT22;24829;49.208;12.080;2023-06-04T10:32:38;25.50;52.90
39079;DHT22;24829;49.208;12.080;2023-06-04T10:35:07;25.60;52.30
39079;DHT22;24829;49.208;12.080;2023-06-04T10:37:33;25.80;52.50
39079;DHT22;24829;49.208;12.080;2023-06-04T10:39:59;25.70;51.80
39079;DHT22;24829;49.208;12.080;2023-06-04T10:42:25;25.60;52.10
39079;DHT22;24829;49.208;12.080;2023-06-04T10:44:52;25.50;52.00
39079;DHT22;24829;49.208;12.080;2023-06-04T10:47:23;25.60;52.00
39079;DHT22;24829;49.208;12.080;2023-06-04T10:49:50;25.60;51.80
39079;DHT22;24829;49.208;12.080;2023-06-04T10:52:16;25.60;52.00
39079;DHT22;24829;49.208;12.080;2023-06-04T10:54:43;25.70;52.30
39079;DHT22;24829;49.208;12.080;2023-06-04T10:57:14;25.50;52.40
39079;DHT22;24829;49.208;12.080;2023-06-04T10:59:41;25.40;51.90
39079;DHT22;24829;49.208;12.080;2023-06-04T11:02:07;25.40;52.00
39079;DHT22;24829;49.208;12.080;2023-06-04T11:04:33;25.30;52.00
39079;DHT22;24829;49.208;12.080;2023-06-04T11:07:06;25.30;52.10
39079;DHT22;24829;49.208;12.080;2023-06-04T11:09:36;25.40;51.60
39079;DHT22;24829;49.208;12.080;2023-06-04T11:12:04;25.30;52.00
39079;DHT22;24829;49.208;12.080;2023-06-04T11:14:30;25.40;51.90
39079;DHT22;24829;49.208;12.080;2023-06-04T11:16:56;25.50;51.80
39079;DHT22;24829;49.208;12.080;2023-06-04T11:19:22;25.30;52.30
39079;DHT22;24829;49.208;12.080;2023-06-04T11:21:48;25.40;52.80
39079;DHT22;24829;49.208;12.080;2023-06-04T11:24:15;25.50;53.40
39079;DHT22;24829;49.208;12.080;2023-06-04T11:26:41;25.50;52.00
39079;DHT22;24829;49.208;12.080;2023-06-04T11:29:10;25.50;53.10
39079;DHT22;24829;49.208;12.080;2023-06-04T11:31:45;25.30;52.40
39079;DHT22;24829;49.208;12.080;2023-06-04T11:34:28;25.20;51.70
39079;DHT22;24829;49.208;12.080;2023-06-04T11:36:54;25.20;52.40
39079;DHT22;24829;49.208;12.080;2023-06-04T11:39:23;25.30;53.40
39079;DHT22;24829;49.208;12.080;2023-06-04T11:41:50;25.50;53.30
39079;DHT22;24829;49.208;12.080;2023-06-04T11:44:19;25.70;53.00
39079;DHT22;24829;49.208;12.080;2023-06-04T11:46:45;25.70;52.90
39079;DHT22;24829;49.208;12.080;2023-06-04T11:49:18;25.60;54.40
39079;DHT22;24829;49.208;12.080;2023-06-04T11:51:51;25.50;53.30
39079;DHT22;24829;49.208;12.080;2023-06-04T11:54:17;25.30;52.90
39079;DHT22;24829;49.208;12.080;2023-06-04T11:56:44;25.20;53.30
39079;DHT22;24829;49.208;12.080;2023-06-04T11:59:14;25.30;53.70
39079;DHT22;24829;49.208;12.080;2023-06-04T12:01:41;25.50;53.30
39079;DHT22;24829;49.208;12.080;2023-06-04T12:04:18;25.50;54.30
39079;DHT22;24829;49.208;12.080;2023-06-04T12:06:58;25.20;52.70
39079;DHT22;24829;49.208;12.080;2023-06-04T12:09:29;24.70;53.30
39079;DHT22;24829;49.208;12.080;2023-06-04T12:12:04;24.70;53.20
39079;DHT22;24829;49.208;12.080;2023-06-04T12:14:30;24.60;53.10
39079;DHT22;24829;49.208;12.080;2023-06-04T12:17:06;24.50;52.40
39079;DHT22;24829;49.208;12.080;2023-06-04T12:19:32;24.50;52.50
39079;DHT22;24829;49.208;12.080;2023-06-04T12:22:06;24.50;52.90
39079;DHT22;24829;49.208;12.080;2023-06-04T12:24:33;24.50;52.60
39079;DHT22;24829;49.208;12.080;2023-06-04T12:27:04;24.40;53.20
39079;DHT22;24829;49.208;12.080;2023-06-04T12:29:30;24.50;52.80
39079;DHT22;24829;49.208;12.080;2023-06-04T12:32:09;24.70;52.60
39079;DHT22;24829;49.208;12.080;2023-06-04T12:34:37;24.80;54.50
39079;DHT22;24829;49.208;12.080;2023-06-04T12:37:03;25.10;53.30
39079;DHT22;24829;49.208;12.080;2023-06-04T12:39:29;24.90;52.90
39079;DHT22;24829;49.208;12.080;2023-06-04T12:41:55;24.90;53.20
39079;DHT22;24829;49.208;12.080;2023-06-04T12:44:21;24.80;52.80
39079;DHT22;24829;49.208;12.080;2023-06-04T12:46:46;24.90;52.90
39079;DHT22;24829;49.208;12.080;2023-06-04T12:49:12;24.90;53.00
39079;DHT22;24829;49.208;12.080;2023-06-04T12:51:38;24.90;52.90
39079;DHT22;24829;49.208;12.080;2023-06-04T12:54:04;24.90;52.60
39079;DHT22;24829;49.208;12.080;2023-06-04T12:56:30;25.10;52.90
39079;DHT22;24829;49.208;12.080;2023-06-04T12:58:56;25.20;52.70
39079;DHT22;24829;49.208;12.080;2023-06-04T13:01:21;25.20;52.60
39079;DHT22;24829;49.208;12.080;2023-06-04T13:03:47;25.10;52.90
39079;DHT22;24829;49.208;12.080;2023-06-04T13:06:13;25.10;53.00
39079;DHT22;24829;49.208;12.080;2023-06-04T13:08:39;25.10;52.30
39079;DHT22;24829;49.208;12.080;2023-06-04T13:11:05;25.10;52.40
39079;DHT22;24829;49.208;12.080;2023-06-04T13:13:31;24.90;52.40
39079;DHT22;24829;49.208;12.080;2023-06-04T13:15:57;24.90;52.60
39079;DHT22;24829;49.208;12.080;2023-06-04T13:18:22;24.80;52.60
39079;DHT22;24829;49.208;12.080;2023-06-04T13:20:48;24.80;53.30
39079;DHT22;24829;49.208;12.080;2023-06-04T13:23:14;24.80;52.40
39079;DHT22;24829;49.208;12.080;2023-06-04T13:25:40;24.80;52.20
39079;DHT22;24829;49.208;12.080;2023-06-04T13:28:06;24.70;52.00
39079;DHT22;24829;49.208;12.080;2023-06-04T13:30:34;24.60;52.60
39079;DHT22;24829;49.208;12.080;2023-06-04T13:33:00;24.60;52.10
39079;DHT22;24829;49.208;12.080;2023-06-04T13:35:26;24.50;53.20
39079;DHT22;24829;49.208;12.080;2023-06-04T13:37:52;24.50;51.90
39079;DHT22;24829;49.208;12.080;2023-06-04T13:40:17;24.50;51.90
39079;DHT22;24829;49.208;12.080;2023-06-04T13:42:43;24.40;51.60
39079;DHT22;24829;49.208;12.080;2023-06-04T13:45:09;24.40;52.60
39079;DHT22;24829;49.208;12.080;2023-06-04T13:47:35;24.30;52.70
39079;DHT22;24829;49.208;12.080;2023-06-04T13:50:00;24.50;52.80
39079;DHT22;24829;49.208;12.080;2023-06-04T13:52:26;24.60;52.50
39079;DHT22;24829;49.208;12.080;2023-06-04T13:54:54;24.60;52.90
39079;DHT22;24829;49.208;12.080;2023-06-04T13:57:20;24.60;52.90
39079;DHT22;24829;49.208;12.080;2023-06-04T13:59:45;24.60;53.10
39079;DHT22;24829;49.208;12.080;2023-06-04T14:02:11;24.50;51.60
39079;DHT22;24829;49.208;12.080;2023-06-04T14:04:37;24.50;52.00
39079;DHT22;24829;49.208;12.080;2023-06-04T14:07:02;24.50;51.50
39079;DHT22;24829;49.208;12.080;2023-06-04T14:09:28;24.50;52.00
39079;DHT22;24829;49.208;12.080;2023-06-04T14:11:54;24.60;51.90
39079;DHT22;24829;49.208;12.080;2023-06-04T14:14:22;24.70;52.00
39079;DHT22;24829;49.208;12.080;2023-06-04T14:16:48;24.70;52.40
39079;DHT22;24829;49.208;12.080;2023-06-04T14:19:14;24.70;51.70
39079;DHT22;24829;49.208;12.080;2023-06-04T14:21:41;24.70;52.40
39079;DHT22;24829;49.208;12.080;2023-06-04T14:24:07;24.70;52.60
39079;DHT22;24829;49.208;12.080;2023-06-04T14:26:32;24.60;52.50
39079;DHT22;24829;49.208;12.080;2023-06-04T14:28:59;24.60;52.70
39079;DHT22;24829;49.208;12.080;2023-06-04T14:31:24;24.50;52.00
39079;DHT22;24829;49.208;12.080;2023-06-04T14:33:50;24.50;53.20
39079;DHT22;24829;49.208;12.080;2023-06-04T14:36:16;24.40;52.60
39079;DHT22;24829;49.208;12.080;2023-06-04T14:38:41;24.40;53.50
39079;DHT22;24829;49.208;12.080;2023-06-04T14:41:07;24.40;53.40
39079;DHT22;24829;49.208;12.080;2023-06-04T14:43:32;24.30;53.90
39079;DHT22;24829;49.208;12.080;2023-06-04T14:45:58;24.20;52.90
39079;DHT22;24829;49.208;12.080;2023-06-04T14:48:24;24.10;54.00
39079;DHT22;24829;49.208;12.080;2023-06-04T14:50:49;24.00;54.50
39079;DHT22;24829;49.208;12.080;2023-06-04T14:53:19;23.90;54.60
39079;DHT22;24829;49.208;12.080;2023-06-04T14:55:45;23.90;54.40
39079;DHT22;24829;49.208;12.080;2023-06-04T14:58:14;23.80;54.20
39079;DHT22;24829;49.208;12.080;2023-06-04T15:00:43;23.80;54.30
39079;DHT22;24829;49.208;12.080;2023-06-04T15:03:08;23.90;54.80
39079;DHT22;24829;49.208;12.080;2023-06-04T15:05:34;24.10;55.00
39079;DHT22;24829;49.208;12.080;2023-06-04T15:08:00;24.00;54.30
39079;DHT22;24829;49.208;12.080;2023-06-04T15:10:26;24.10;55.00
39079;DHT22;24829;49.208;12.080;2023-06-04T15:12:52;24.30;55.60
39079;DHT22;24829;49.208;12.080;2023-06-04T15:15:18;24.30;55.40
39079;DHT22;24829;49.208;12.080;2023-06-04T15:17:43;24.30;55.40